Time,TemperatureF,DewpointF,PressureIn,WindDirection,WindDirectionDegrees,WindSpeedMPH,WindSpeedGustMPH,Humidity,HourlyPrecipIn,Conditions,Clouds,dailyrainin,SoftwareType,DateUTC
2013-04-27 00:01:00,51.3,33.0,30.40,West,269,6.0,-999.0,50,-99.99,,,0.00,weatherlink.com 1.10,2013-04-27 04:01:00,
2013-04-27 00:16:00,51.3,33.0,30.41,West,269,6.0,-999.0,50,-99.99,,,0.00,weatherlink.com 1.10,2013-04-27 04:16:00,
2013-04-27 00:31:00,51.3,33.0,30.40,West,269,4.0,-999.0,50,-99.99,,,0.00,weatherlink.com 1.10,2013-04-27 04:31:00,
2013-04-27 00:46:00,51.1,33.0,30.39,SW,226,3.0,-999.0,50,-99.99,,,0.00,weatherlink.com 1.10,2013-04-27 04:46:00,
2013-04-27 01:01:00,50.3,34.0,30.40,North,360,11.0,-999.0,54,-99.99,,,0.00,weatherlink.com 1.10,2013-04-27 05:01:00,
2013-04-27 01:16:00,48.6,36.0,30.41,WSW,238,8.0,-999.0,62,-99.99,,,0.00,weatherlink.com 1.10,2013-04-27 05:16:00,
2013-04-27 01:31:00,48.5,38.0,30.41,North,360,9.0,-999.0,67,-99.99,,,0.00,weatherlink.com 1.10,2013-04-27 05:31:00,
2013-04-27 01:46:00,49.0,38.0,30.40,NNW,327,7.0,-999.0,67,-99.99,,,0.00,weatherlink.com 1.10,2013-04-27 05:46:00,
2013-04-27 02:01:00,49.4,38.0,30.39,NNW,327,4.0,-999.0,66,-99.99,,,0.00,weatherlink.com 1.10,2013-04-27 06:01:00,
2013-04-27 02:16:00,50.2,38.0,30.38,NNW,329,4.0,-999.0,63,-99.99,,,0.00,weatherlink.com 1.10,2013-04-27 06:16:00,
2013-04-27 02:31:00,50.1,39.0,30.36,NNW,330,5.0,-999.0,65,-99.99,,,0.00,weatherlink.com 1.10,2013-04-27 06:31:00,
2013-04-27 02:46:00,50.5,39.0,30.36,NW,311,5.0,-999.0,66,-99.99,,,0.00,weatherlink.com 1.10,2013-04-27 06:46:00,
2013-04-27 03:01:00,51.0,39.0,30.36,West,272,4.0,-999.0,64,-99.99,,,0.00,weatherlink.com 1.10,2013-04-27 07:01:00,
2013-04-27 03:16:00,51.0,39.0,30.36,WNW,290,5.0,-999.0,63,-99.99,,,0.00,weatherlink.com 1.10,2013-04-27 07:16:00,
2013-04-27 03:31:00,50.7,39.0,30.35,WNW,290,3.0,-999.0,64,-99.99,,,0.00,weatherlink.com 1.10,2013-04-27 07:31:00,
2013-04-27 03:46:00,50.4,39.0,30.35,WNW,290,2.0,-999.0,65,-99.99,,,0.00,weatherlink.com 1.10,2013-04-27 07:46:00,
2013-04-27 04:01:00,50.2,39.0,30.34,WNW,290,1.0,-999.0,65,-99.99,,,0.00,weatherlink.com 1.10,2013-04-27 08:01:00,
2013-04-27 04:16:00,50.2,39.0,30.35,WNW,290,0.0,-999.0,65,-99.99,,,0.00,weatherlink.com 1.10,2013-04-27 08:16:00,
2013-04-27 04:31:00,49.9,38.0,30.35,WNW,290,1.0,-999.0,65,-99.99,,,0.00,weatherlink.com 1.10,2013-04-27 08:31:00,
2013-04-27 04:46:00,49.6,39.0,30.35,WNW,290,3.0,-999.0,66,-99.99,,,0.00,weatherlink.com 1.10,2013-04-27 08:46:00,
2013-04-27 05:01:00,49.5,39.0,30.35,WNW,284,2.0,-999.0,67,-99.99,,,0.00,weatherlink.com 1.10,2013-04-27 09:01:00,
2013-04-27 05:16:00,49.5,39.0,30.34,WNW,284,2.0,-999.0,67,-99.99,,,0.00,weatherlink.com 1.10,2013-04-27 09:16:00,
2013-04-27 05:31:00,49.7,38.0,30.35,WNW,284,4.0,-999.0,64,-99.99,,,0.00,weatherlink.com 1.10,2013-04-27 09:31:00,
2013-04-27 05:46:00,50.1,38.0,30.35,WNW,284,3.0,-999.0,63,-99.99,,,0.00,weatherlink.com 1.10,2013-04-27 09:46:00,
2013-04-27 06:01:00,50.1,38.0,30.35,WNW,290,3.0,-999.0,63,-99.99,,,0.00,weatherlink.com 1.10,2013-04-27 10:01:00,
2013-04-27 06:16:00,49.9,38.0,30.35,WNW,290,1.0,-999.0,64,-99.99,,,0.00,weatherlink.com 1.10,2013-04-27 10:16:00,
2013-04-27 06:31:00,49.4,39.0,30.35,WNW,290,2.0,-999.0,67,-99.99,,,0.00,weatherlink.com 1.10,2013-04-27 10:31:00,
2013-04-27 06:46:00,48.6,39.0,30.35,WNW,290,1.0,-999.0,70,-99.99,,,0.00,weatherlink.com 1.10,2013-04-27 10:46:00,
2013-04-27 07:01:00,48.2,40.0,30.35,WNW,290,0.0,-999.0,72,-99.99,,,0.00,weatherlink.com 1.10,2013-04-27 11:01:00,
2013-04-27 07:16:00,48.3,40.0,30.34,WNW,290,1.0,-999.0,72,-99.99,,,0.00,weatherlink.com 1.10,2013-04-27 11:16:00,
2013-04-27 07:31:00,48.3,40.0,30.34,WNW,290,0.0,-999.0,72,-99.99,,,0.00,weatherlink.com 1.10,2013-04-27 11:31:00,
2013-04-27 07:46:00,48.4,40.0,30.34,WNW,290,0.0,-999.0,72,-99.99,,,0.00,weatherlink.com 1.10,2013-04-27 11:46:00,
2013-04-27 08:01:00,48.5,40.0,30.35,WNW,290,0.0,-999.0,72,-99.99,,,0.00,weatherlink.com 1.10,2013-04-27 12:01:00,
2013-04-27 08:16:00,48.3,40.0,30.36,WNW,290,0.0,-999.0,74,-99.99,,,0.00,weatherlink.com 1.10,2013-04-27 12:16:00,
2013-04-27 08:31:00,48.1,41.0,30.35,WNW,290,0.0,-999.0,75,-99.99,,,0.00,weatherlink.com 1.10,2013-04-27 12:31:00,
2013-04-27 08:46:00,48.6,41.0,30.35,WNW,290,0.0,-999.0,75,-99.99,,,0.00,weatherlink.com 1.10,2013-04-27 12:46:00,
2013-04-27 09:01:00,49.1,41.0,30.35,NNW,331,1.0,-999.0,74,-99.99,,,0.00,weatherlink.com 1.10,2013-04-27 13:01:00,
2013-04-27 09:16:00,49.2,41.0,30.35,East,96,1.0,-999.0,72,-99.99,,,0.00,weatherlink.com 1.10,2013-04-27 13:16:00,
2013-04-27 09:31:00,49.4,41.0,30.34,ESE,102,0.0,-999.0,72,-99.99,,,0.00,weatherlink.com 1.10,2013-04-27 13:31:00,
2013-04-27 10:01:00,49.4,42.0,30.34,ESE,118,0.0,-999.0,76,-99.99,,,0.00,weatherlink.com 1.10,2013-04-27 14:01:00,
2013-04-27 10:16:00,50.0,42.0,30.34,ESE,117,0.0,-999.0,74,-99.99,,,0.00,weatherlink.com 1.10,2013-04-27 14:16:00,
2013-04-27 10:31:00,49.7,42.0,30.34,ESE,121,1.0,-999.0,75,-99.99,,,0.00,weatherlink.com 1.10,2013-04-27 14:31:00,
2013-04-27 10:46:00,49.6,42.0,30.34,SE,125,1.0,-999.0,75,-99.99,,,0.00,weatherlink.com 1.10,2013-04-27 14:46:00,
2013-04-27 11:01:00,49.3,43.0,30.34,SE,130,5.0,-999.0,79,-99.99,,,0.00,weatherlink.com 1.10,2013-04-27 15:01:00,
2013-04-27 11:16:00,49.1,43.0,30.34,SE,130,0.0,-999.0,78,-99.99,,,0.00,weatherlink.com 1.10,2013-04-27 15:16:00,
2013-04-27 11:31:00,49.8,43.0,30.34,SE,132,1.0,-999.0,77,-99.99,,,0.00,weatherlink.com 1.10,2013-04-27 15:31:00,
2013-04-27 11:46:00,49.4,42.0,30.34,SE,134,0.0,-999.0,77,-99.99,,,0.00,weatherlink.com 1.10,2013-04-27 15:46:00,
2013-04-27 12:01:00,49.3,42.0,30.34,SE,136,2.0,-999.0,77,-99.99,,,0.00,weatherlink.com 1.10,2013-04-27 16:01:00,
2013-04-27 12:16:00,50.4,43.0,30.33,SE,138,0.0,-999.0,76,-99.99,,,0.00,weatherlink.com 1.10,2013-04-27 16:16:00,
2013-04-27 12:31:00,51.3,43.0,30.33,SE,144,0.0,-999.0,73,-99.99,,,0.00,weatherlink.com 1.10,2013-04-27 16:31:00,
2013-04-27 12:46:00,52.8,44.0,30.33,SSW,192,3.0,-999.0,71,-99.99,,,0.00,weatherlink.com 1.10,2013-04-27 16:46:00,
2013-04-27 13:01:00,51.5,43.0,30.33,SSE,165,0.0,-999.0,72,-99.99,,,0.00,weatherlink.com 1.10,2013-04-27 17:01:00,
2013-04-27 13:16:00,50.7,43.0,30.33,SSW,192,3.0,-999.0,74,-99.99,,,0.00,weatherlink.com 1.10,2013-04-27 17:16:00,
2013-04-27 13:31:00,50.1,44.0,30.34,West,271,2.0,-999.0,78,-99.99,,,0.00,weatherlink.com 1.10,2013-04-27 17:31:00,
2013-04-27 13:46:00,48.7,44.0,30.34,West,274,4.0,-999.0,84,-99.99,,,0.01,weatherlink.com 1.10,2013-04-27 17:46:00,
2013-04-27 14:01:00,48.1,44.0,30.34,West,274,3.0,-999.0,87,-99.99,,,0.01,weatherlink.com 1.10,2013-04-27 18:01:00,
2013-04-27 14:16:00,47.6,44.0,30.34,West,274,2.0,-999.0,88,-99.99,,,0.01,weatherlink.com 1.10,2013-04-27 18:16:00,
2013-04-27 14:31:00,47.2,44.0,30.34,West,274,2.0,-999.0,89,-99.99,,,0.01,weatherlink.com 1.10,2013-04-27 18:31:00,
2013-04-27 14:46:00,46.8,44.0,30.33,West,274,2.0,-999.0,90,-99.99,,,0.02,weatherlink.com 1.10,2013-04-27 18:46:00,
2013-04-27 15:01:00,46.7,44.0,30.32,West,274,2.0,-999.0,91,-99.99,,,0.02,weatherlink.com 1.10,2013-04-27 19:01:00,
2013-04-27 15:16:00,47.3,45.0,30.32,West,274,2.0,-999.0,93,-99.99,,,0.02,weatherlink.com 1.10,2013-04-27 19:16:00,
2013-04-27 15:31:00,47.8,46.0,30.31,West,274,2.0,-999.0,93,-99.99,,,0.02,weatherlink.com 1.10,2013-04-27 19:31:00,
2013-04-27 15:46:00,47.9,46.0,30.31,SW,220,2.0,-999.0,93,-99.99,,,0.02,weatherlink.com 1.10,2013-04-27 19:46:00,
2013-04-27 16:01:00,47.3,45.0,30.31,SW,227,7.0,-999.0,93,-99.99,,,0.02,weatherlink.com 1.10,2013-04-27 20:01:00,
2013-04-27 16:16:00,46.7,45.0,30.31,SW,233,4.0,-999.0,93,-99.99,,,0.02,weatherlink.com 1.10,2013-04-27 20:16:00,
2013-04-27 16:31:00,46.1,45.0,30.31,WSW,243,7.0,-999.0,94,-99.99,,,0.04,weatherlink.com 1.10,2013-04-27 20:31:00,
2013-04-27 16:46:00,45.9,45.0,30.31,WSW,243,5.0,-999.0,95,-99.99,,,0.05,weatherlink.com 1.10,2013-04-27 20:46:00,
2013-04-27 17:01:00,45.9,45.0,30.30,WSW,244,1.0,-999.0,96,-99.99,,,0.05,weatherlink.com 1.10,2013-04-27 21:01:00,
2013-04-27 17:16:00,46.0,45.0,30.28,WSW,244,3.0,-999.0,96,-99.99,,,0.06,weatherlink.com 1.10,2013-04-27 21:16:00,
2013-04-27 17:31:00,46.3,46.0,30.27,SE,125,6.0,-999.0,97,-99.99,,,0.07,weatherlink.com 1.10,2013-04-27 21:31:00,
2013-04-27 17:46:00,46.1,45.0,30.27,SSE,168,4.0,-999.0,97,-99.99,,,0.07,weatherlink.com 1.10,2013-04-27 21:46:00,
2013-04-27 18:01:00,45.9,45.0,30.28,SSW,196,1.0,-999.0,97,-99.99,,,0.07,weatherlink.com 1.10,2013-04-27 22:01:00,
2013-04-27 18:16:00,45.9,45.0,30.29,SW,235,3.0,-999.0,97,-99.99,,,0.07,weatherlink.com 1.10,2013-04-27 22:16:00,
2013-04-27 18:31:00,45.9,45.0,30.29,WSW,241,3.0,-999.0,98,-99.99,,,0.07,weatherlink.com 1.10,2013-04-27 22:31:00,
2013-04-27 18:46:00,46.0,46.0,30.28,SSW,211,6.0,-999.0,98,-99.99,,,0.07,weatherlink.com 1.10,2013-04-27 22:46:00,
2013-04-27 19:01:00,46.1,46.0,30.28,SSW,202,7.0,-999.0,98,-99.99,,,0.07,weatherlink.com 1.10,2013-04-27 23:01:00,
2013-04-27 19:16:00,46.0,46.0,30.28,SW,223,3.0,-999.0,98,-99.99,,,0.07,weatherlink.com 1.10,2013-04-27 23:16:00,
2013-04-27 19:31:00,45.9,45.0,30.28,SW,236,4.0,-999.0,98,-99.99,,,0.08,weatherlink.com 1.10,2013-04-27 23:31:00,
2013-04-27 19:46:00,46.0,46.0,30.28,WSW,237,2.0,-999.0,98,-99.99,,,0.08,weatherlink.com 1.10,2013-04-27 23:46:00,
2013-04-27 20:01:00,46.1,46.0,30.27,WSW,237,4.0,-999.0,98,-99.99,,,0.09,weatherlink.com 1.10,2013-04-28 00:01:00,
2013-04-27 20:16:00,46.1,46.0,30.27,South,180,2.0,-999.0,98,-99.99,,,0.09,weatherlink.com 1.10,2013-04-28 00:16:00,
2013-04-27 20:31:00,46.0,46.0,30.27,South,188,2.0,-999.0,98,-99.99,,,0.09,weatherlink.com 1.10,2013-04-28 00:31:00,
2013-04-27 20:46:00,45.8,45.0,30.27,SW,223,4.0,-999.0,98,-99.99,,,0.09,weatherlink.com 1.10,2013-04-28 00:46:00,
2013-04-27 21:01:00,45.6,45.0,30.27,West,276,3.0,-999.0,98,-99.99,,,0.09,weatherlink.com 1.10,2013-04-28 01:01:00,
2013-04-27 21:16:00,45.6,45.0,30.27,WSW,245,9.0,-999.0,99,-99.99,,,0.10,weatherlink.com 1.10,2013-04-28 01:16:00,
2013-04-27 21:31:00,45.6,45.0,30.27,SSE,160,8.0,-999.0,99,-99.99,,,0.11,weatherlink.com 1.10,2013-04-28 01:31:00,
2013-04-27 21:46:00,45.3,45.0,30.27,SE,131,7.0,-999.0,99,-99.99,,,0.11,weatherlink.com 1.10,2013-04-28 01:46:00,
2013-04-27 22:01:00,45.3,45.0,30.27,SSE,163,5.0,-999.0,99,-99.99,,,0.12,weatherlink.com 1.10,2013-04-28 02:01:00,
2013-04-27 22:16:00,45.2,45.0,30.28,SW,221,9.0,-999.0,99,-99.99,,,0.12,weatherlink.com 1.10,2013-04-28 02:16:00,
2013-04-27 22:31:00,45.1,45.0,30.28,South,184,5.0,-999.0,99,-99.99,,,0.12,weatherlink.com 1.10,2013-04-28 02:31:00,
2013-04-27 22:46:00,45.2,45.0,30.28,South,175,7.0,-999.0,99,-99.99,,,0.12,weatherlink.com 1.10,2013-04-28 02:46:00,
2013-04-27 23:01:00,45.2,45.0,30.27,SSW,203,7.0,-999.0,99,-99.99,,,0.12,weatherlink.com 1.10,2013-04-28 03:01:00,
2013-04-27 23:16:00,45.2,45.0,30.27,SSW,202,9.0,-999.0,99,-99.99,,,0.13,weatherlink.com 1.10,2013-04-28 03:16:00,
2013-04-27 23:31:00,45.1,45.0,30.27,WSW,243,5.0,-999.0,99,-99.99,,,0.13,weatherlink.com 1.10,2013-04-28 03:31:00,
2013-04-27 23:46:00,45.0,45.0,30.26,WNW,291,3.0,-999.0,99,-99.99,,,0.13,weatherlink.com 1.10,2013-04-28 03:46:00,